| time (UTC) | temp F | wind direction | speed MPH | gust MPH | rain 1hr in | rain 24hr in | rain mn in | humidity % | barometer mb |
| 20260504212527 | 40 | 0 | 0.0 | 6.0 | 0.01 | 0.36 | 0.17 | 92 | 1014.2 |
| 20260504212026 | 41 | 104 | 1.0 | 6.0 | 0.01 | 0.36 | 0.17 | 92 | 1014.6 |
| 20260504211538 | 41 | 0 | 0.0 | 0.0 | 0.02 | 0.36 | 0.17 | 91 | 1013.9 |
| 20260504211024 | 41 | 0 | 0.0 | 2.0 | 0.02 | 0.36 | 0.17 | 91 | 1013.9 |
| 20260504210525 | 41 | 0 | 0.0 | 2.0 | 0.04 | 0.36 | 0.17 | 92 | 1014.0 |
| 20260504210047 | 41 | 0 | 0.0 | 3.0 | 0.06 | 0.36 | 0.17 | 92 | 1014.0 |
| 20260504205525 | 41 | 0 | 0.0 | 3.0 | 0.09 | 0.36 | 0.17 | 91 | 1014.0 |
| 20260504205029 | 41 | 0 | 0.0 | 0.0 | 0.11 | 0.36 | 0.17 | 91 | 1014.0 |
| 20260504204546 | 40 | 0 | 0.0 | 0.0 | 0.12 | 0.36 | 0.17 | 92 | 1013.9 |
| 20260504204028 | 40 | 0 | 0.0 | 0.0 | 0.12 | 0.35 | 0.16 | 91 | 1014.0 |
| 20260504203527 | 40 | 0 | 0.0 | 0.0 | 0.12 | 0.35 | 0.16 | 91 | 1014.1 |
| 20260504203058 | 40 | 0 | 0.0 | 0.0 | 0.13 | 0.35 | 0.16 | 92 | 1014.2 |
| 20260504202527 | 40 | 0 | 0.0 | 0.0 | 0.13 | 0.35 | 0.16 | 91 | 1014.3 |
| 20260504202025 | 40 | 0 | 0.0 | 2.0 | 0.13 | 0.35 | 0.16 | 91 | 1014.3 |
| 20260504201539 | 40 | 0 | 0.0 | 2.0 | 0.12 | 0.34 | 0.15 | 90 | 1014.3 |
| 20260504201030 | 40 | 0 | 0.0 | 0.0 | 0.11 | 0.33 | 0.14 | 91 | 1014.5 |
| 20260504200525 | 41 | 0 | 0.0 | 0.0 | 0.10 | 0.32 | 0.13 | 90 | 1014.4 |
| 20260504200046 | 41 | 0 | 0.0 | 3.0 | 0.08 | 0.30 | 0.11 | 91 | 1014.6 |
| 20260504195525 | 41 | 0 | 0.0 | 7.0 | 0.05 | 0.27 | 0.08 | 90 | 1014.6 |
| 20260504195027 | 41 | 0 | 1.0 | 7.0 | 0.03 | 0.25 | 0.06 | 91 | 1014.5 |
| 20260504194543 | 42 | 105 | 2.0 | 6.0 | 0.02 | 0.24 | 0.05 | 90 | 1014.5 |
| 20260504194024 | 42 | 106 | 1.0 | 3.0 | 0.01 | 0.23 | 0.04 | 89 | 1014.3 |
| 20260504193526 | 42 | 106 | 1.0 | 3.0 | 0.01 | 0.23 | 0.04 | 89 | 1014.3 |
| 20260504193046 | 42 | 0 | 0.0 | 3.0 | 0.00 | 0.22 | 0.03 | 88 | 1014.1 |
| 20260504192524 | 42 | 0 | 0.0 | 2.0 | 0.00 | 0.22 | 0.03 | 86 | 1014.2 |
| 20260504192027 | 43 | 106 | 0.0 | 2.0 | 0.00 | 0.22 | 0.03 | 88 | 1014.1 |
| 20260504191543 | 43 | 0 | 0.0 | 1.0 | 0.00 | 0.22 | 0.03 | 89 | 1014.1 |
| 20260504191027 | 43 | 0 | 0.0 | 1.0 | 0.00 | 0.22 | 0.03 | 89 | 1014.1 |
| 20260504190527 | 43 | 0 | 0.0 | 2.0 | 0.00 | 0.22 | 0.03 | 89 | 1014.1 |
| 20260504190045 | 43 | 0 | 0.0 | 2.0 | 0.00 | 0.22 | 0.03 | 90 | 1014.2 |
| 20260504185526 | 43 | 0 | 0.0 | 2.0 | 0.00 | 0.22 | 0.03 | 89 | 1014.2 |
| 20260504185026 | 43 | 0 | 0.0 | 2.0 | 0.00 | 0.22 | 0.03 | 89 | 1014.3 |
| 20260504184538 | 42 | 106 | 0.0 | 3.0 | 0.00 | 0.22 | 0.03 | 89 | 1014.3 |
| 20260504184026 | 42 | 0 | 0.0 | 4.0 | 0.00 | 0.22 | 0.03 | 88 | 1014.2 |
| 20260504183525 | 42 | 106 | 2.0 | 4.0 | 0.00 | 0.22 | 0.03 | 87 | 1014.3 |
| 20260504183043 | 42 | 0 | 0.0 | 3.0 | 0.01 | 0.22 | 0.03 | 88 | 1014.2 |
| 20260504182524 | 42 | 0 | 0.0 | 3.0 | 0.01 | 0.22 | 0.03 | 89 | 1014.2 |
| 20260504182025 | 42 | 105 | 0.0 | 3.0 | 0.01 | 0.22 | 0.03 | 88 | 1014.2 |
| 20260504181546 | 42 | 0 | 0.0 | 3.0 | 0.01 | 0.22 | 0.03 | 89 | 1014.1 |
| 20260504181024 | 42 | 0 | 0.0 | 3.0 | 0.01 | 0.22 | 0.03 | 89 | 1014.0 |
| 20260504180531 | 42 | 105 | 0.0 | 3.0 | 0.01 | 0.22 | 0.03 | 89 | 1014.1 |
| 20260504180043 | 42 | 0 | 0.0 | 3.0 | 0.01 | 0.22 | 0.03 | 88 | 1014.1 |
| 20260504175526 | 42 | 0 | 0.0 | 3.0 | 0.01 | 0.22 | 0.03 | 88 | 1014.1 |
| 20260504175026 | 43 | 0 | 0.0 | 3.0 | 0.01 | 0.22 | 0.03 | 88 | 1014.2 |
| 20260504174538 | 43 | 105 | 0.0 | 4.0 | 0.01 | 0.22 | 0.03 | 87 | 1014.1 |
| 20260504174025 | 43 | 0 | 1.0 | 4.0 | 0.02 | 0.22 | 0.03 | 87 | 1013.9 |
| 20260504173526 | 43 | 0 | 0.0 | 2.0 | 0.02 | 0.22 | 0.03 | 90 | 1014.0 |
| 20260504173045 | 43 | 102 | 0.0 | 2.0 | 0.01 | 0.21 | 0.02 | 90 | 1013.9 |
| 20260504172525 | 43 | 0 | 0.0 | 3.0 | 0.01 | 0.21 | 0.02 | 89 | 1013.9 |
| 20260504172027 | 43 | 0 | 0.0 | 3.0 | 0.01 | 0.21 | 0.02 | 90 | 1014.1 |
| 20260504171549 | 42 | 102 | 0.0 | 2.0 | 0.01 | 0.21 | 0.02 | 89 | 1014.0 |
| 20260504171026 | 43 | 0 | 0.0 | 2.0 | 0.01 | 0.21 | 0.02 | 89 | 1013.9 |
| 20260504170526 | 43 | 0 | 0.0 | 2.0 | 0.01 | 0.21 | 0.02 | 89 | 1013.9 |
| 20260504151026 | 42 | 0 | 0.0 | 1.0 | 0.00 | 0.19 | 0.00 | 84 | 1013.8 |
| 20260504150525 | 42 | 0 | 0.0 | 1.0 | 0.00 | 0.19 | 0.00 | 84 | 1013.9 |
| 20260504141024 | 41 | 0 | 0.0 | 3.0 | 0.00 | 0.19 | 0.00 | 88 | 1013.6 |
| 20260504140525 | 41 | 0 | 0.0 | 4.0 | 0.00 | 0.19 | 0.00 | 88 | 1013.6 |
| 20260504130526 | 39 | 0 | 0.0 | 1.0 | 0.00 | 0.19 | 0.00 | 89 | 1013.4 |
| 20260504110525 | 40 | 0 | 0.0 | 0.0 | 0.00 | 0.19 | 0.00 | 82 | 1013.7 |
| 20260504100526 | 39 | 0 | 0.0 | 0.0 | 0.00 | 0.19 | 0.00 | 90 | 1014.2 |
| 20260504081546 | 40 | 0 | 0.0 | 2.0 | 0.00 | 0.19 | 0.00 | 89 | 1014.8 |
| 20260504081026 | 40 | 94 | 0.0 | 2.0 | 0.00 | 0.19 | 0.00 | 90 | 1014.8 |
| 20260504080525 | 41 | 0 | 0.0 | 3.0 | 0.00 | 0.19 | 0.00 | 90 | 1014.9 |
| 20260504050524 | 40 | 0 | 0.0 | 0.0 | 0.00 | 0.19 | 0.19 | 90 | 1015.4 |
| 20260504045524 | 40 | 0 | 0.0 | 0.0 | 0.00 | 0.19 | 0.19 | 90 | 1015.4 |
| 20260504045023 | 40 | 0 | 0.0 | 0.0 | 0.00 | 0.19 | 0.19 | 89 | 1015.4 |
| 20260504044551 | 40 | 0 | 0.0 | 0.0 | 0.00 | 0.19 | 0.19 | 89 | 1015.3 |
| 20260504044024 | 40 | 0 | 0.0 | 0.0 | 0.00 | 0.19 | 0.19 | 90 | 1015.3 |
| 20260504043524 | 40 | 0 | 0.0 | 0.0 | 0.00 | 0.19 | 0.19 | 90 | 1015.2 |
| 20260504043038 | 40 | 0 | 0.0 | 0.0 | 0.00 | 0.19 | 0.19 | 90 | 1015.3 |
| 20260504042525 | 41 | 0 | 0.0 | 0.0 | 0.00 | 0.19 | 0.19 | 90 | 1015.3 |
| 20260504042024 | 41 | 0 | 0.0 | 0.0 | 0.00 | 0.19 | 0.19 | 89 | 1015.3 |
| 20260504041546 | 41 | 0 | 0.0 | 0.0 | 0.00 | 0.19 | 0.19 | 89 | 1015.3 |
| 20260504041025 | 41 | 0 | 0.0 | 1.0 | 0.00 | 0.19 | 0.19 | 89 | 1015.3 |
| 20260504040525 | 41 | 0 | 0.0 | 1.0 | 0.00 | 0.19 | 0.19 | 89 | 1015.2 |
| 20260504040104 | 41 | 0 | 0.0 | 3.0 | 0.00 | 0.19 | 0.19 | 89 | 1015.4 |
| 20260504035526 | 41 | 0 | 0.0 | 3.0 | 0.00 | 0.20 | 0.19 | 89 | 1015.4 |
| 20260504035026 | 41 | 0 | 0.0 | 3.0 | 0.00 | 0.20 | 0.19 | 88 | 1015.4 |
| 20260504034600 | 41 | 0 | 0.0 | 2.0 | 0.00 | 0.20 | 0.19 | 88 | 1015.3 |
| 20260504034025 | 41 | 0 | 0.0 | 3.0 | 0.00 | 0.20 | 0.19 | 88 | 1015.2 |
| 20260504033524 | 42 | 86 | 0.0 | 3.0 | 0.00 | 0.20 | 0.19 | 90 | 1015.0 |
| 20260504033037 | 42 | 0 | 0.0 | 3.0 | 0.00 | 0.20 | 0.19 | 90 | 1015.0 |
| 20260504032525 | 42 | 0 | 0.0 | 2.0 | 0.00 | 0.20 | 0.19 | 90 | 1015.0 |
| 20260504032028 | 42 | 86 | 0.0 | 1.0 | 0.00 | 0.20 | 0.19 | 90 | 1015.0 |
| 20260504031536 | 42 | 0 | 0.0 | 0.0 | 0.00 | 0.20 | 0.19 | 90 | 1014.9 |
| 20260504031024 | 42 | 0 | 0.0 | 0.0 | 0.00 | 0.20 | 0.19 | 89 | 1014.5 |
| 20260504030524 | 42 | 0 | 0.0 | 0.0 | 0.00 | 0.20 | 0.19 | 89 | 1014.5 |
| 20260504025525 | 42 | 0 | 0.0 | 1.0 | 0.00 | 0.23 | 0.19 | 89 | 1014.6 |
| 20260504025026 | 42 | 0 | 0.0 | 1.0 | 0.00 | 0.23 | 0.19 | 89 | 1014.6 |
| 20260504024541 | 42 | 0 | 0.0 | 2.0 | 0.00 | 0.23 | 0.19 | 88 | 1014.5 |
| 20260504024025 | 42 | 0 | 0.0 | 2.0 | 0.00 | 0.23 | 0.19 | 88 | 1014.6 |
| 20260504023525 | 42 | 0 | 0.0 | 2.0 | 0.00 | 0.23 | 0.19 | 89 | 1014.6 |
| 20260504023040 | 43 | 0 | 0.0 | 2.0 | 0.00 | 0.23 | 0.19 | 90 | 1014.7 |
| 20260504022525 | 43 | 0 | 0.0 | 2.0 | 0.00 | 0.23 | 0.19 | 89 | 1014.8 |
| 20260504022025 | 43 | 0 | 0.0 | 2.0 | 0.00 | 0.23 | 0.19 | 89 | 1015.1 |
| 20260504021538 | 43 | 0 | 0.0 | 3.0 | 0.00 | 0.23 | 0.19 | 88 | 1015.1 |
| 20260504021024 | 43 | 84 | 0.0 | 3.0 | 0.00 | 0.23 | 0.19 | 89 | 1015.0 |
| 20260504020525 | 43 | 0 | 0.0 | 3.0 | 0.00 | 0.23 | 0.19 | 88 | 1014.9 |
| 20260504020045 | 43 | 0 | 0.0 | 3.0 | 0.00 | 0.23 | 0.19 | 88 | 1015.2 |
| 20260504015525 | 43 | 81 | 0.0 | 2.0 | 0.00 | 0.28 | 0.19 | 86 | 1015.4 |
| 20260504015025 | 44 | 0 | 0.0 | 2.0 | 0.00 | 0.28 | 0.19 | 86 | 1015.4 |
| 20260504014544 | 44 | 0 | 0.0 | 2.0 | 0.00 | 0.28 | 0.19 | 86 | 1015.4 |
| 20260504014025 | 44 | 0 | 0.0 | 2.0 | 0.00 | 0.28 | 0.19 | 86 | 1015.4 |
| 20260504013525 | 44 | 0 | 0.0 | 3.0 | 0.00 | 0.28 | 0.19 | 86 | 1015.2 |
| 20260504013050 | 44 | 81 | 0.0 | 3.0 | 0.00 | 0.28 | 0.19 | 86 | 1015.2 |
| 20260504012530 | 44 | 0 | 0.0 | 3.0 | 0.00 | 0.28 | 0.19 | 84 | 1015.2 |
| 20260504012025 | 44 | 0 | 0.0 | 3.0 | 0.00 | 0.28 | 0.19 | 85 | 1015.2 |
| 20260504011541 | 44 | 0 | 0.0 | 3.0 | 0.00 | 0.28 | 0.19 | 84 | 1015.2 |
| 20260504011024 | 44 | 81 | 0.0 | 3.0 | 0.00 | 0.28 | 0.19 | 85 | 1015.1 |
| 20260504010524 | 45 | 0 | 0.0 | 3.0 | 0.00 | 0.28 | 0.19 | 86 | 1015.1 |
| 20260504010040 | 45 | 69 | 0.0 | 2.0 | 0.00 | 0.28 | 0.19 | 83 | 1014.6 |
| 20260504005525 | 45 | 0 | 0.0 | 3.0 | 0.00 | 0.28 | 0.19 | 85 | 1014.6 |
| 20260504005025 | 45 | 0 | 0.0 | 3.0 | 0.00 | 0.28 | 0.19 | 87 | 1014.7 |
| 20260504004537 | 45 | 66 | 0.0 | 2.0 | 0.00 | 0.28 | 0.19 | 85 | 1014.7 |
| 20260504004025 | 44 | 0 | 0.0 | 2.0 | 0.00 | 0.28 | 0.19 | 88 | 1014.7 |
| 20260504003524 | 44 | 0 | 0.0 | 1.0 | 0.00 | 0.28 | 0.19 | 87 | 1014.7 |
| 20260504003044 | 43 | 0 | 0.0 | 5.0 | 0.00 | 0.28 | 0.19 | 88 | 1014.7 |
| 20260504002525 | 43 | 0 | 0.0 | 5.0 | 0.00 | 0.28 | 0.19 | 87 | 1015.1 |
| 20260504002024 | 42 | 346 | 1.0 | 5.0 | 0.01 | 0.28 | 0.19 | 89 | 1015.0 |
| 20260504001558 | 42 | 0 | 0.0 | 4.0 | 0.02 | 0.28 | 0.19 | 88 | 1015.3 |
| 20260504001024 | 42 | 0 | 0.0 | 3.0 | 0.02 | 0.28 | 0.19 | 88 | 1015.6 |
| 20260504000525 | 42 | 0 | 0.0 | 0.0 | 0.02 | 0.28 | 0.19 | 92 | 1015.9 |
| 20260504000047 | 41 | 0 | 0.0 | 2.0 | 0.02 | 0.28 | 0.19 | 91 | 1016.2 |
| 20260503235526 | 41 | 0 | 0.0 | 2.0 | 0.03 | 0.28 | 0.19 | 91 | 1016.3 |
| 20260503235024 | 41 | 0 | 0.0 | 4.0 | 0.03 | 0.28 | 0.19 | 91 | 1016.5 |
| 20260503234540 | 41 | 0 | 0.0 | 4.0 | 0.04 | 0.28 | 0.19 | 91 | 1016.5 |
| 20260503234025 | 40 | 0 | 0.0 | 1.0 | 0.04 | 0.28 | 0.19 | 90 | 1016.6 |
| 20260503233526 | 40 | 0 | 0.0 | 0.0 | 0.05 | 0.28 | 0.19 | 90 | 1016.9 |
| 20260503233040 | 40 | 0 | 0.0 | 0.0 | 0.06 | 0.28 | 0.19 | 90 | 1017.1 |
| 20260503232525 | 40 | 0 | 0.0 | 0.0 | 0.05 | 0.27 | 0.18 | 89 | 1017.1 |
| 20260503232024 | 40 | 0 | 0.0 | 0.0 | 0.07 | 0.27 | 0.18 | 89 | 1017.2 |
| 20260503231539 | 41 | 0 | 0.0 | 0.0 | 0.07 | 0.26 | 0.17 | 89 | 1017.3 |
| 20260503231026 | 41 | 0 | 0.0 | 1.0 | 0.08 | 0.26 | 0.17 | 89 | 1017.4 |
| 20260503230527 | 40 | 0 | 0.0 | 2.0 | 0.10 | 0.26 | 0.17 | 89 | 1017.3 |
| 20260503230038 | 41 | 0 | 0.0 | 2.0 | 0.12 | 0.26 | 0.17 | 88 | 1017.2 |
| 20260503225524 | 41 | 0 | 0.0 | 5.0 | 0.13 | 0.25 | 0.16 | 89 | 1017.3 |
| 20260503225024 | 41 | 186 | 0.0 | 6.0 | 0.13 | 0.24 | 0.15 | 90 | 1017.3 |
| 20260503224541 | 41 | 0 | 1.0 | 6.0 | 0.14 | 0.24 | 0.15 | 89 | 1017.5 |
| 20260503224028 | 41 | 0 | 0.0 | 4.0 | 0.14 | 0.24 | 0.15 | 89 | 1017.5 |
| 20260503223524 | 41 | 222 | 0.0 | 7.0 | 0.13 | 0.23 | 0.14 | 89 | 1017.8 |
| 20260503223040 | 41 | 193 | 1.0 | 8.0 | 0.12 | 0.22 | 0.13 | 88 | 1018.0 |
| 20260503222523 | 41 | 215 | 2.0 | 8.0 | 0.11 | 0.21 | 0.12 | 89 | 1018.1 |
| 20260503222023 | 42 | 225 | 0.0 | 18.0 | 0.11 | 0.20 | 0.11 | 87 | 1018.0 |
| 20260503221543 | 42 | 154 | 4.0 | 18.0 | 0.10 | 0.19 | 0.10 | 85 | 1017.9 |
| 20260503221026 | 43 | 159 | 1.0 | 9.0 | 0.08 | 0.17 | 0.08 | 84 | 1017.8 |
| 20260503220526 | 43 | 0 | 1.0 | 6.0 | 0.07 | 0.16 | 0.07 | 79 | 1017.6 |
| 20260503220037 | 44 | 0 | 0.0 | 6.0 | 0.05 | 0.14 | 0.05 | 79 | 1017.6 |
| 20260503215524 | 45 | 0 | 0.0 | 4.0 | 0.02 | 0.11 | 0.02 | 79 | 1017.7 |
| 20260503215027 | 45 | 0 | 0.0 | 3.0 | 0.02 | 0.11 | 0.02 | 75 | 1017.3 |
| 20260503214538 | 46 | 321 | 1.0 | 5.0 | 0.01 | 0.10 | 0.01 | 75 | 1017.0 |
| 20260503214026 | 46 | 0 | 0.0 | 5.0 | 0.01 | 0.10 | 0.01 | 73 | 1016.7 |
| 20260503213528 | 47 | 317 | 2.0 | 5.0 | 0.01 | 0.10 | 0.01 | 71 | 1016.6 |
| 20260503213046 | 47 | 238 | 1.0 | 7.0 | 0.01 | 0.10 | 0.01 | 69 | 1016.5 |